sensor_id;sensor_type;location;lat;lon;timestamp;P1;durP1;ratioP1;P2;durP2;ratioP2
10120;SDS011;5100;45.176;5.714;2023-06-14T00:00:59;1.80;;;1.70;;
10120;SDS011;5100;45.176;5.714;2023-06-14T00:03:25;2.42;;;1.67;;
10120;SDS011;5100;45.176;5.714;2023-06-14T00:05:51;2.55;;;1.75;;
10120;SDS011;5100;45.176;5.714;2023-06-14T00:08:17;2.40;;;1.77;;
10120;SDS011;5100;45.176;5.714;2023-06-14T00:10:44;2.60;;;1.80;;
10120;SDS011;5100;45.176;5.714;2023-06-14T00:13:10;8.38;;;1.90;;
10120;SDS011;5100;45.176;5.714;2023-06-14T00:15:37;2.03;;;1.92;;
10120;SDS011;5100;45.176;5.714;2023-06-14T00:18:04;2.00;;;1.80;;
10120;SDS011;5100;45.176;5.714;2023-06-14T00:20:31;1.70;;;1.60;;
10120;SDS011;5100;45.176;5.714;2023-06-14T00:22:59;2.90;;;1.62;;
10120;SDS011;5100;45.176;5.714;2023-06-14T00:25:26;6.43;;;1.98;;
10120;SDS011;5100;45.176;5.714;2023-06-14T00:27:53;2.78;;;1.65;;
10120;SDS011;5100;45.176;5.714;2023-06-14T00:30:20;2.17;;;1.80;;
10120;SDS011;5100;45.176;5.714;2023-06-14T00:32:46;3.00;;;1.80;;
10120;SDS011;5100;45.176;5.714;2023-06-14T00:35:13;3.47;;;1.90;;
10120;SDS011;5100;45.176;5.714;2023-06-14T00:37:39;2.08;;;1.87;;
10120;SDS011;5100;45.176;5.714;2023-06-14T00:40:07;4.07;;;1.98;;
10120;SDS011;5100;45.176;5.714;2023-06-14T00:42:33;1.75;;;1.65;;
10120;SDS011;5100;45.176;5.714;2023-06-14T00:45:00;2.58;;;1.73;;
10120;SDS011;5100;45.176;5.714;2023-06-14T00:47:26;1.92;;;1.70;;
10120;SDS011;5100;45.176;5.714;2023-06-14T00:49:53;2.17;;;1.98;;
10120;SDS011;5100;45.176;5.714;2023-06-14T00:52:20;1.80;;;1.60;;
10120;SDS011;5100;45.176;5.714;2023-06-14T00:54:50;1.80;;;1.70;;
10120;SDS011;5100;45.176;5.714;2023-06-14T00:57:16;2.12;;;1.65;;
10120;SDS011;5100;45.176;5.714;2023-06-14T00:59:43;4.45;;;2.28;;
10120;SDS011;5100;45.176;5.714;2023-06-14T01:02:11;3.53;;;2.00;;
10120;SDS011;5100;45.176;5.714;2023-06-14T01:04:38;1.83;;;1.73;;
10120;SDS011;5100;45.176;5.714;2023-06-14T01:10:12;1.87;;;1.75;;
10120;SDS011;5100;45.176;5.714;2023-06-14T01:15:20;1.83;;;1.73;;
10120;SDS011;5100;45.176;5.714;2023-06-14T01:17:48;2.05;;;1.95;;
10120;SDS011;5100;45.176;5.714;2023-06-14T01:20:17;2.00;;;1.90;;
10120;SDS011;5100;45.176;5.714;2023-06-14T01:22:53;4.37;;;1.90;;
10120;SDS011;5100;45.176;5.714;2023-06-14T01:25:20;3.30;;;1.85;;
10120;SDS011;5100;45.176;5.714;2023-06-14T01:27:58;3.15;;;2.17;;
10120;SDS011;5100;45.176;5.714;2023-06-14T01:30:27;3.28;;;2.00;;
10120;SDS011;5100;45.176;5.714;2023-06-14T01:32:54;2.22;;;1.65;;
10120;SDS011;5100;45.176;5.714;2023-06-14T01:35:21;2.65;;;2.03;;
10120;SDS011;5100;45.176;5.714;2023-06-14T01:37:48;4.03;;;1.95;;
10120;SDS011;5100;45.176;5.714;2023-06-14T01:40:15;4.87;;;2.33;;
10120;SDS011;5100;45.176;5.714;2023-06-14T01:42:43;2.40;;;1.80;;
10120;SDS011;5100;45.176;5.714;2023-06-14T01:45:12;2.97;;;1.92;;
10120;SDS011;5100;45.176;5.714;2023-06-14T01:47:39;2.35;;;2.15;;
10120;SDS011;5100;45.176;5.714;2023-06-14T01:50:06;2.80;;;2.37;;
10120;SDS011;5100;45.176;5.714;2023-06-14T01:52:32;2.83;;;1.90;;
10120;SDS011;5100;45.176;5.714;2023-06-14T01:54:58;2.42;;;1.83;;
10120;SDS011;5100;45.176;5.714;2023-06-14T01:57:27;4.05;;;1.95;;
10120;SDS011;5100;45.176;5.714;2023-06-14T01:59:55;1.73;;;1.60;;
10120;SDS011;5100;45.176;5.714;2023-06-14T02:02:20;2.62;;;1.80;;
10120;SDS011;5100;45.176;5.714;2023-06-14T02:04:47;1.85;;;1.75;;
10120;SDS011;5100;45.176;5.714;2023-06-14T02:07:13;1.70;;;1.40;;
10120;SDS011;5100;45.176;5.714;2023-06-14T02:09:41;2.85;;;1.60;;
10120;SDS011;5100;45.176;5.714;2023-06-14T02:12:07;2.75;;;1.77;;
10120;SDS011;5100;45.176;5.714;2023-06-14T02:14:34;2.28;;;1.98;;
10120;SDS011;5100;45.176;5.714;2023-06-14T02:16:59;2.97;;;2.25;;
10120;SDS011;5100;45.176;5.714;2023-06-14T02:19:26;5.20;;;4.70;;
10120;SDS011;5100;45.176;5.714;2023-06-14T02:21:53;21.20;;;19.58;;
10120;SDS011;5100;45.176;5.714;2023-06-14T02:24:19;19.90;;;18.20;;
10120;SDS011;5100;45.176;5.714;2023-06-14T02:26:45;13.85;;;12.68;;
10120;SDS011;5100;45.176;5.714;2023-06-14T02:29:13;7.43;;;6.72;;
10120;SDS011;5100;45.176;5.714;2023-06-14T02:31:40;8.43;;;7.65;;
10120;SDS011;5100;45.176;5.714;2023-06-14T02:34:06;12.15;;;11.05;;
10120;SDS011;5100;45.176;5.714;2023-06-14T02:36:34;14.25;;;13.10;;
10120;SDS011;5100;45.176;5.714;2023-06-14T02:39:05;14.73;;;13.52;;
10120;SDS011;5100;45.176;5.714;2023-06-14T02:41:31;5.10;;;4.70;;
10120;SDS011;5100;45.176;5.714;2023-06-14T02:43:57;10.45;;;6.20;;
10120;SDS011;5100;45.176;5.714;2023-06-14T02:46:24;7.60;;;5.80;;
10120;SDS011;5100;45.176;5.714;2023-06-14T02:48:50;4.40;;;3.90;;
10120;SDS011;5100;45.176;5.714;2023-06-14T02:51:16;4.10;;;3.70;;
10120;SDS011;5100;45.176;5.714;2023-06-14T02:53:42;5.97;;;5.43;;
10120;SDS011;5100;45.176;5.714;2023-06-14T02:56:09;7.28;;;6.68;;
10120;SDS011;5100;45.176;5.714;2023-06-14T02:58:36;8.77;;;6.22;;
10120;SDS011;5100;45.176;5.714;2023-06-14T03:01:04;5.97;;;5.47;;
10120;SDS011;5100;45.176;5.714;2023-06-14T03:03:31;6.20;;;5.65;;
10120;SDS011;5100;45.176;5.714;2023-06-14T03:05:58;6.85;;;5.50;;
10120;SDS011;5100;45.176;5.714;2023-06-14T03:08:29;7.03;;;5.20;;
10120;SDS011;5100;45.176;5.714;2023-06-14T03:10:58;10.55;;;5.10;;
10120;SDS011;5100;45.176;5.714;2023-06-14T03:13:24;5.03;;;4.40;;
10120;SDS011;5100;45.176;5.714;2023-06-14T03:15:52;8.80;;;4.90;;
10120;SDS011;5100;45.176;5.714;2023-06-14T03:18:19;3.05;;;2.80;;
10120;SDS011;5100;45.176;5.714;2023-06-14T03:20:48;3.87;;;2.50;;
10120;SDS011;5100;45.176;5.714;2023-06-14T03:23:17;2.55;;;2.00;;
10120;SDS011;5100;45.176;5.714;2023-06-14T03:25:44;2.47;;;2.28;;
10120;SDS011;5100;45.176;5.714;2023-06-14T03:28:11;4.00;;;2.20;;
10120;SDS011;5100;45.176;5.714;2023-06-14T03:30:37;2.20;;;2.00;;
10120;SDS011;5100;45.176;5.714;2023-06-14T03:33:03;2.85;;;2.25;;
10120;SDS011;5100;45.176;5.714;2023-06-14T03:35:31;2.00;;;1.83;;
10120;SDS011;5100;45.176;5.714;2023-06-14T03:37:57;2.20;;;2.00;;
10120;SDS011;5100;45.176;5.714;2023-06-14T03:40:23;3.97;;;2.10;;
10120;SDS011;5100;45.176;5.714;2023-06-14T03:42:56;2.08;;;1.98;;
10120;SDS011;5100;45.176;5.714;2023-06-14T03:45:22;2.22;;;2.00;;
10120;SDS011;5100;45.176;5.714;2023-06-14T03:47:48;4.03;;;2.00;;
10120;SDS011;5100;45.176;5.714;2023-06-14T03:50:16;2.33;;;2.05;;
10120;SDS011;5100;45.176;5.714;2023-06-14T03:52:43;1.90;;;1.75;;
10120;SDS011;5100;45.176;5.714;2023-06-14T03:55:10;4.22;;;1.80;;
10120;SDS011;5100;45.176;5.714;2023-06-14T03:57:38;3.45;;;1.87;;
10120;SDS011;5100;45.176;5.714;2023-06-14T04:00:07;3.78;;;2.00;;
10120;SDS011;5100;45.176;5.714;2023-06-14T04:02:39;2.00;;;1.85;;
10120;SDS011;5100;45.176;5.714;2023-06-14T04:05:06;3.20;;;2.05;;
10120;SDS011;5100;45.176;5.714;2023-06-14T04:07:35;2.42;;;2.22;;
10120;SDS011;5100;45.176;5.714;2023-06-14T04:10:08;1.77;;;1.67;;
10120;SDS011;5100;45.176;5.714;2023-06-14T04:12:34;2.15;;;1.95;;
10120;SDS011;5100;45.176;5.714;2023-06-14T04:15:00;2.30;;;2.10;;
10120;SDS011;5100;45.176;5.714;2023-06-14T04:17:28;2.90;;;2.42;;
10120;SDS011;5100;45.176;5.714;2023-06-14T04:19:54;2.95;;;2.05;;
10120;SDS011;5100;45.176;5.714;2023-06-14T04:22:20;5.60;;;2.58;;
10120;SDS011;5100;45.176;5.714;2023-06-14T04:24:47;2.60;;;2.40;;
10120;SDS011;5100;45.176;5.714;2023-06-14T04:27:12;2.97;;;2.42;;
10120;SDS011;5100;45.176;5.714;2023-06-14T04:29:40;3.97;;;2.37;;
10120;SDS011;5100;45.176;5.714;2023-06-14T04:32:11;3.30;;;3.00;;
10120;SDS011;5100;45.176;5.714;2023-06-14T04:34:39;4.55;;;3.10;;
10120;SDS011;5100;45.176;5.714;2023-06-14T04:37:05;2.83;;;2.62;;
10120;SDS011;5100;45.176;5.714;2023-06-14T04:39:34;3.08;;;2.78;;
10120;SDS011;5100;45.176;5.714;2023-06-14T04:42:00;4.80;;;3.00;;
10120;SDS011;5100;45.176;5.714;2023-06-14T04:44:29;2.70;;;2.42;;
10120;SDS011;5100;45.176;5.714;2023-06-14T04:46:58;3.72;;;2.87;;
10120;SDS011;5100;45.176;5.714;2023-06-14T04:49:24;3.55;;;2.85;;
10120;SDS011;5100;45.176;5.714;2023-06-14T04:51:51;3.53;;;2.72;;
10120;SDS011;5100;45.176;5.714;2023-06-14T04:54:23;2.75;;;2.53;;
10120;SDS011;5100;45.176;5.714;2023-06-14T04:56:53;3.85;;;2.60;;
10120;SDS011;5100;45.176;5.714;2023-06-14T04:59:21;2.50;;;2.20;;
10120;SDS011;5100;45.176;5.714;2023-06-14T05:01:50;2.20;;;2.00;;
10120;SDS011;5100;45.176;5.714;2023-06-14T05:04:17;3.70;;;2.37;;
10120;SDS011;5100;45.176;5.714;2023-06-14T05:06:44;2.40;;;2.20;;
10120;SDS011;5100;45.176;5.714;2023-06-14T05:09:12;2.65;;;2.45;;
10120;SDS011;5100;45.176;5.714;2023-06-14T05:11:39;2.42;;;2.22;;
10120;SDS011;5100;45.176;5.714;2023-06-14T05:14:07;5.05;;;2.72;;
10120;SDS011;5100;45.176;5.714;2023-06-14T05:16:33;4.07;;;2.30;;
10120;SDS011;5100;45.176;5.714;2023-06-14T05:18:59;3.50;;;2.45;;
10120;SDS011;5100;45.176;5.714;2023-06-14T05:21:26;2.37;;;2.12;;
10120;SDS011;5100;45.176;5.714;2023-06-14T05:23:52;4.15;;;2.15;;
10120;SDS011;5100;45.176;5.714;2023-06-14T05:26:19;2.90;;;2.35;;
10120;SDS011;5100;45.176;5.714;2023-06-14T05:28:45;3.17;;;2.12;;
10120;SDS011;5100;45.176;5.714;2023-06-14T05:31:12;3.33;;;3.03;;
10120;SDS011;5100;45.176;5.714;2023-06-14T05:33:38;3.25;;;2.60;;
10120;SDS011;5100;45.176;5.714;2023-06-14T05:36:03;2.90;;;2.40;;
10120;SDS011;5100;45.176;5.714;2023-06-14T05:38:30;2.85;;;2.65;;
10120;SDS011;5100;45.176;5.714;2023-06-14T05:40:56;3.90;;;2.15;;
10120;SDS011;5100;45.176;5.714;2023-06-14T05:43:22;2.40;;;2.20;;
10120;SDS011;5100;45.176;5.714;2023-06-14T05:45:48;8.18;;;4.82;;
10120;SDS011;5100;45.176;5.714;2023-06-14T05:48:14;5.60;;;2.70;;
10120;SDS011;5100;45.176;5.714;2023-06-14T05:50:40;3.62;;;2.83;;
10120;SDS011;5100;45.176;5.714;2023-06-14T05:53:06;3.80;;;3.05;;
10120;SDS011;5100;45.176;5.714;2023-06-14T05:55:32;3.55;;;3.03;;
10120;SDS011;5100;45.176;5.714;2023-06-14T05:57:58;4.15;;;3.20;;
10120;SDS011;5100;45.176;5.714;2023-06-14T06:00:25;3.78;;;3.37;;
10120;SDS011;5100;45.176;5.714;2023-06-14T06:02:51;3.95;;;3.37;;
10120;SDS011;5100;45.176;5.714;2023-06-14T06:05:17;10.65;;;4.30;;
10120;SDS011;5100;45.176;5.714;2023-06-14T06:07:43;5.15;;;3.25;;
10120;SDS011;5100;45.176;5.714;2023-06-14T06:10:12;2.62;;;2.42;;
10120;SDS011;5100;45.176;5.714;2023-06-14T06:12:37;7.45;;;3.33;;
10120;SDS011;5100;45.176;5.714;2023-06-14T06:15:04;3.78;;;3.05;;
10120;SDS011;5100;45.176;5.714;2023-06-14T06:17:30;3.20;;;2.87;;
10120;SDS011;5100;45.176;5.714;2023-06-14T06:19:56;3.03;;;2.70;;
10120;SDS011;5100;45.176;5.714;2023-06-14T06:22:22;3.92;;;2.85;;
10120;SDS011;5100;45.176;5.714;2023-06-14T06:27:15;3.22;;;2.47;;
10120;SDS011;5100;45.176;5.714;2023-06-14T06:29:44;4.90;;;2.53;;
10120;SDS011;5100;45.176;5.714;2023-06-14T06:32:10;4.43;;;2.50;;
10120;SDS011;5100;45.176;5.714;2023-06-14T06:34:36;2.67;;;2.37;;
10120;SDS011;5100;45.176;5.714;2023-06-14T06:37:02;3.83;;;3.00;;
10120;SDS011;5100;45.176;5.714;2023-06-14T06:39:28;2.30;;;2.10;;
10120;SDS011;5100;45.176;5.714;2023-06-14T06:41:54;4.43;;;2.80;;
10120;SDS011;5100;45.176;5.714;2023-06-14T06:44:25;2.58;;;2.37;;
10120;SDS011;5100;45.176;5.714;2023-06-14T06:46:54;5.10;;;3.40;;
10120;SDS011;5100;45.176;5.714;2023-06-14T06:49:20;3.58;;;3.10;;
10120;SDS011;5100;45.176;5.714;2023-06-14T06:51:59;4.00;;;2.87;;
10120;SDS011;5100;45.176;5.714;2023-06-14T06:54:27;4.12;;;3.72;;
10120;SDS011;5100;45.176;5.714;2023-06-14T06:56:53;5.47;;;3.03;;
10120;SDS011;5100;45.176;5.714;2023-06-14T06:59:19;3.50;;;3.10;;
10120;SDS011;5100;45.176;5.714;2023-06-14T07:01:45;4.05;;;3.65;;
10120;SDS011;5100;45.176;5.714;2023-06-14T07:04:11;4.20;;;3.00;;
10120;SDS011;5100;45.176;5.714;2023-06-14T07:06:38;3.17;;;2.92;;
10120;SDS011;5100;45.176;5.714;2023-06-14T07:09:04;3.47;;;3.05;;
10120;SDS011;5100;45.176;5.714;2023-06-14T07:11:33;3.50;;;3.20;;
10120;SDS011;5100;45.176;5.714;2023-06-14T07:13:59;4.78;;;2.83;;
10120;SDS011;5100;45.176;5.714;2023-06-14T07:16:25;4.47;;;3.08;;
10120;SDS011;5100;45.176;5.714;2023-06-14T07:18:51;3.97;;;3.67;;
10120;SDS011;5100;45.176;5.714;2023-06-14T07:21:18;4.82;;;3.15;;
10120;SDS011;5100;45.176;5.714;2023-06-14T07:23:44;3.40;;;3.10;;
10120;SDS011;5100;45.176;5.714;2023-06-14T07:26:10;4.72;;;3.22;;
10120;SDS011;5100;45.176;5.714;2023-06-14T07:28:36;6.43;;;3.40;;
10120;SDS011;5100;45.176;5.714;2023-06-14T07:31:03;3.58;;;2.72;;
10120;SDS011;5100;45.176;5.714;2023-06-14T07:33:29;3.55;;;3.25;;
10120;SDS011;5100;45.176;5.714;2023-06-14T07:35:54;3.28;;;3.08;;
10120;SDS011;5100;45.176;5.714;2023-06-14T07:38:21;3.97;;;3.30;;
10120;SDS011;5100;45.176;5.714;2023-06-14T07:40:47;3.00;;;2.80;;
10120;SDS011;5100;45.176;5.714;2023-06-14T07:43:13;3.90;;;3.25;;
10120;SDS011;5100;45.176;5.714;2023-06-14T07:45:40;3.30;;;2.92;;
10120;SDS011;5100;45.176;5.714;2023-06-14T07:48:06;3.22;;;2.92;;
10120;SDS011;5100;45.176;5.714;2023-06-14T07:50:32;3.85;;;2.90;;
10120;SDS011;5100;45.176;5.714;2023-06-14T07:52:58;3.37;;;3.08;;
10120;SDS011;5100;45.176;5.714;2023-06-14T07:55:24;3.45;;;3.03;;
10120;SDS011;5100;45.176;5.714;2023-06-14T07:57:50;3.00;;;2.70;;
10120;SDS011;5100;45.176;5.714;2023-06-14T08:00:16;2.92;;;2.72;;
10120;SDS011;5100;45.176;5.714;2023-06-14T08:02:44;3.12;;;2.83;;
10120;SDS011;5100;45.176;5.714;2023-06-14T08:05:11;2.90;;;2.70;;
10120;SDS011;5100;45.176;5.714;2023-06-14T08:07:37;3.00;;;2.80;;
10120;SDS011;5100;45.176;5.714;2023-06-14T08:10:06;2.87;;;2.58;;
10120;SDS011;5100;45.176;5.714;2023-06-14T08:12:33;2.92;;;2.53;;
10120;SDS011;5100;45.176;5.714;2023-06-14T08:14:59;2.90;;;2.70;;
10120;SDS011;5100;45.176;5.714;2023-06-14T08:17:26;2.78;;;2.58;;
10120;SDS011;5100;45.176;5.714;2023-06-14T08:19:52;4.10;;;2.75;;
10120;SDS011;5100;45.176;5.714;2023-06-14T08:22:22;4.53;;;3.05;;
10120;SDS011;5100;45.176;5.714;2023-06-14T08:24:50;2.80;;;2.60;;
10120;SDS011;5100;45.176;5.714;2023-06-14T08:27:16;2.58;;;2.33;;
10120;SDS011;5100;45.176;5.714;2023-06-14T08:29:42;2.53;;;2.33;;
10120;SDS011;5100;45.176;5.714;2023-06-14T08:32:09;2.50;;;2.03;;
10120;SDS011;5100;45.176;5.714;2023-06-14T08:34:35;3.03;;;2.40;;
10120;SDS011;5100;45.176;5.714;2023-06-14T08:37:01;2.08;;;1.98;;
10120;SDS011;5100;45.176;5.714;2023-06-14T08:39:27;2.10;;;1.90;;
10120;SDS011;5100;45.176;5.714;2023-06-14T08:41:53;2.30;;;2.10;;
10120;SDS011;5100;45.176;5.714;2023-06-14T08:44:21;2.42;;;1.83;;
10120;SDS011;5100;45.176;5.714;2023-06-14T08:46:48;2.05;;;1.87;;
10120;SDS011;5100;45.176;5.714;2023-06-14T08:49:15;2.08;;;1.90;;
10120;SDS011;5100;45.176;5.714;2023-06-14T08:51:42;2.62;;;2.42;;
10120;SDS011;5100;45.176;5.714;2023-06-14T08:54:10;2.22;;;2.03;;
10120;SDS011;5100;45.176;5.714;2023-06-14T08:56:38;2.55;;;2.08;;
10120;SDS011;5100;45.176;5.714;2023-06-14T08:59:06;2.30;;;2.10;;
10120;SDS011;5100;45.176;5.714;2023-06-14T09:01:35;2.00;;;1.80;;
10120;SDS011;5100;45.176;5.714;2023-06-14T09:04:02;2.20;;;2.03;;
10120;SDS011;5100;45.176;5.714;2023-06-14T09:06:30;2.22;;;2.03;;
10120;SDS011;5100;45.176;5.714;2023-06-14T09:08:58;2.53;;;2.00;;
10120;SDS011;5100;45.176;5.714;2023-06-14T09:11:24;1.70;;;1.60;;
10120;SDS011;5100;45.176;5.714;2023-06-14T09:13:52;1.60;;;1.50;;
10120;SDS011;5100;45.176;5.714;2023-06-14T09:16:18;1.80;;;1.70;;
10120;SDS011;5100;45.176;5.714;2023-06-14T09:18:45;2.28;;;2.08;;
10120;SDS011;5100;45.176;5.714;2023-06-14T09:21:15;1.98;;;1.87;;
10120;SDS011;5100;45.176;5.714;2023-06-14T09:23:43;2.22;;;2.00;;
10120;SDS011;5100;45.176;5.714;2023-06-14T09:26:11;2.20;;;2.00;;
10120;SDS011;5100;45.176;5.714;2023-06-14T09:28:42;1.85;;;1.75;;
10120;SDS011;5100;45.176;5.714;2023-06-14T09:31:13;2.03;;;1.80;;
10120;SDS011;5100;45.176;5.714;2023-06-14T09:33:44;2.37;;;2.00;;
10120;SDS011;5100;45.176;5.714;2023-06-14T09:36:23;1.80;;;1.70;;
10120;SDS011;5100;45.176;5.714;2023-06-14T09:39:01;3.95;;;1.80;;
10120;SDS011;5100;45.176;5.714;2023-06-14T09:41:38;2.30;;;2.10;;
10120;SDS011;5100;45.176;5.714;2023-06-14T09:44:09;2.00;;;1.90;;
10120;SDS011;5100;45.176;5.714;2023-06-14T09:46:36;1.92;;;1.80;;
10120;SDS011;5100;45.176;5.714;2023-06-14T09:49:03;3.00;;;1.73;;
10120;SDS011;5100;45.176;5.714;2023-06-14T09:51:31;1.60;;;1.50;;
10120;SDS011;5100;45.176;5.714;2023-06-14T09:54:01;1.83;;;1.60;;
10120;SDS011;5100;45.176;5.714;2023-06-14T09:56:40;4.65;;;2.05;;
10120;SDS011;5100;45.176;5.714;2023-06-14T09:59:09;2.00;;;1.73;;
10120;SDS011;5100;45.176;5.714;2023-06-14T10:01:41;1.75;;;1.60;;
10120;SDS011;5100;45.176;5.714;2023-06-14T10:04:08;2.62;;;1.80;;
10120;SDS011;5100;45.176;5.714;2023-06-14T10:06:36;1.75;;;1.65;;
10120;SDS011;5100;45.176;5.714;2023-06-14T10:09:04;1.77;;;1.67;;
10120;SDS011;5100;45.176;5.714;2023-06-14T10:11:34;2.00;;;1.90;;
10120;SDS011;5100;45.176;5.714;2023-06-14T10:14:01;1.83;;;1.73;;
10120;SDS011;5100;45.176;5.714;2023-06-14T10:19:48;2.00;;;1.80;;
10120;SDS011;5100;45.176;5.714;2023-06-14T10:24:51;1.62;;;1.52;;
10120;SDS011;5100;45.176;5.714;2023-06-14T10:27:18;2.15;;;1.83;;
10120;SDS011;5100;45.176;5.714;2023-06-14T10:32:24;2.42;;;1.83;;
10120;SDS011;5100;45.176;5.714;2023-06-14T10:34:57;2.20;;;2.00;;
10120;SDS011;5100;45.176;5.714;2023-06-14T10:37:30;2.47;;;1.95;;
10120;SDS011;5100;45.176;5.714;2023-06-14T10:39:56;1.70;;;1.60;;
10120;SDS011;5100;45.176;5.714;2023-06-14T10:42:22;1.98;;;1.77;;
10120;SDS011;5100;45.176;5.714;2023-06-14T10:44:59;1.80;;;1.70;;
10120;SDS011;5100;45.176;5.714;2023-06-14T10:52:34;2.00;;;1.80;;
10120;SDS011;5100;45.176;5.714;2023-06-14T10:55:11;1.98;;;1.87;;
10120;SDS011;5100;45.176;5.714;2023-06-14T11:00:11;1.65;;;1.55;;
10120;SDS011;5100;45.176;5.714;2023-06-14T11:05:25;2.15;;;2.00;;
10120;SDS011;5100;45.176;5.714;2023-06-14T11:11:00;2.10;;;1.92;;
10120;SDS011;5100;45.176;5.714;2023-06-14T11:13:27;2.37;;;1.98;;
10120;SDS011;5100;45.176;5.714;2023-06-14T11:15:54;2.10;;;2.00;;
10120;SDS011;5100;45.176;5.714;2023-06-14T11:18:22;2.62;;;2.42;;
10120;SDS011;5100;45.176;5.714;2023-06-14T11:20:53;2.20;;;2.08;;
10120;SDS011;5100;45.176;5.714;2023-06-14T11:23:19;2.30;;;2.20;;
10120;SDS011;5100;45.176;5.714;2023-06-14T11:25:51;2.70;;;2.12;;
10120;SDS011;5100;45.176;5.714;2023-06-14T11:28:17;3.90;;;2.30;;
10120;SDS011;5100;45.176;5.714;2023-06-14T11:30:47;2.35;;;2.15;;
10120;SDS011;5100;45.176;5.714;2023-06-14T11:33:20;5.43;;;2.42;;
10120;SDS011;5100;45.176;5.714;2023-06-14T11:35:48;2.72;;;2.20;;
10120;SDS011;5100;45.176;5.714;2023-06-14T11:38:14;3.83;;;2.28;;
10120;SDS011;5100;45.176;5.714;2023-06-14T11:40:40;2.50;;;2.30;;
10120;SDS011;5100;45.176;5.714;2023-06-14T11:43:06;3.15;;;2.30;;
10120;SDS011;5100;45.176;5.714;2023-06-14T11:45:32;3.10;;;2.50;;
10120;SDS011;5100;45.176;5.714;2023-06-14T11:47:58;2.20;;;2.00;;
10120;SDS011;5100;45.176;5.714;2023-06-14T11:50:25;4.43;;;2.70;;
10120;SDS011;5100;45.176;5.714;2023-06-14T11:52:56;2.67;;;2.45;;
10120;SDS011;5100;45.176;5.714;2023-06-14T11:55:25;2.72;;;2.50;;
10120;SDS011;5100;45.176;5.714;2023-06-14T11:57:54;2.35;;;2.15;;
10120;SDS011;5100;45.176;5.714;2023-06-14T12:00:25;2.47;;;2.30;;
10120;SDS011;5100;45.176;5.714;2023-06-14T12:02:54;2.60;;;2.40;;
10120;SDS011;5100;45.176;5.714;2023-06-14T12:05:21;2.37;;;2.15;;
10120;SDS011;5100;45.176;5.714;2023-06-14T12:07:48;7.05;;;2.90;;
10120;SDS011;5100;45.176;5.714;2023-06-14T12:10:16;2.45;;;2.25;;
10120;SDS011;5100;45.176;5.714;2023-06-14T12:12:42;3.03;;;2.72;;
10120;SDS011;5100;45.176;5.714;2023-06-14T12:15:09;2.47;;;2.15;;
10120;SDS011;5100;45.176;5.714;2023-06-14T12:17:37;3.00;;;2.28;;
10120;SDS011;5100;45.176;5.714;2023-06-14T12:20:08;3.95;;;2.58;;
10120;SDS011;5100;45.176;5.714;2023-06-14T12:22:50;4.65;;;2.60;;
10120;SDS011;5100;45.176;5.714;2023-06-14T12:25:29;3.17;;;2.53;;
10120;SDS011;5100;45.176;5.714;2023-06-14T12:28:04;2.62;;;2.42;;
10120;SDS011;5100;45.176;5.714;2023-06-14T12:30:32;2.58;;;2.37;;
10120;SDS011;5100;45.176;5.714;2023-06-14T12:32:58;2.40;;;2.20;;
10120;SDS011;5100;45.176;5.714;2023-06-14T12:35:24;2.70;;;2.50;;
10120;SDS011;5100;45.176;5.714;2023-06-14T12:37:50;2.33;;;2.08;;
10120;SDS011;5100;45.176;5.714;2023-06-14T12:40:16;3.50;;;2.60;;
10120;SDS011;5100;45.176;5.714;2023-06-14T12:42:44;3.08;;;2.60;;
10120;SDS011;5100;45.176;5.714;2023-06-14T12:45:12;3.87;;;2.65;;
10120;SDS011;5100;45.176;5.714;2023-06-14T12:47:39;5.10;;;2.70;;
10120;SDS011;5100;45.176;5.714;2023-06-14T12:50:05;4.93;;;2.60;;
10120;SDS011;5100;45.176;5.714;2023-06-14T12:52:32;3.75;;;2.28;;
10120;SDS011;5100;45.176;5.714;2023-06-14T12:55:02;3.00;;;2.28;;
10120;SDS011;5100;45.176;5.714;2023-06-14T12:57:32;2.95;;;2.58;;
10120;SDS011;5100;45.176;5.714;2023-06-14T12:59:59;2.70;;;2.40;;
10120;SDS011;5100;45.176;5.714;2023-06-14T13:02:25;2.90;;;2.50;;
10120;SDS011;5100;45.176;5.714;2023-06-14T13:04:52;3.30;;;3.00;;
10120;SDS011;5100;45.176;5.714;2023-06-14T13:07:18;2.58;;;2.37;;
10120;SDS011;5100;45.176;5.714;2023-06-14T13:09:44;5.53;;;2.95;;
10120;SDS011;5100;45.176;5.714;2023-06-14T13:12:10;3.12;;;2.83;;
10120;SDS011;5100;45.176;5.714;2023-06-14T13:14:37;3.00;;;2.55;;
10120;SDS011;5100;45.176;5.714;2023-06-14T13:17:04;2.70;;;2.50;;
10120;SDS011;5100;45.176;5.714;2023-06-14T13:19:31;2.90;;;2.60;;
10120;SDS011;5100;45.176;5.714;2023-06-14T13:21:57;3.47;;;2.90;;
10120;SDS011;5100;45.176;5.714;2023-06-14T13:24:23;3.10;;;2.85;;
10120;SDS011;5100;45.176;5.714;2023-06-14T13:26:49;3.08;;;2.67;;
10120;SDS011;5100;45.176;5.714;2023-06-14T13:29:15;4.68;;;2.85;;
10120;SDS011;5100;45.176;5.714;2023-06-14T13:31:41;3.25;;;2.95;;
10120;SDS011;5100;45.176;5.714;2023-06-14T13:34:07;3.90;;;2.83;;
10120;SDS011;5100;45.176;5.714;2023-06-14T13:36:33;3.33;;;3.03;;
10120;SDS011;5100;45.176;5.714;2023-06-14T13:39:00;6.37;;;3.12;;
10120;SDS011;5100;45.176;5.714;2023-06-14T13:41:28;2.85;;;2.65;;
10120;SDS011;5100;45.176;5.714;2023-06-14T13:43:59;4.55;;;2.75;;
10120;SDS011;5100;45.176;5.714;2023-06-14T13:46:26;2.62;;;2.42;;
10120;SDS011;5100;45.176;5.714;2023-06-14T13:48:52;3.03;;;2.70;;
10120;SDS011;5100;45.176;5.714;2023-06-14T13:51:18;3.78;;;2.90;;
10120;SDS011;5100;45.176;5.714;2023-06-14T13:53:48;3.62;;;2.60;;
10120;SDS011;5100;45.176;5.714;2023-06-14T13:56:16;4.10;;;2.85;;
10120;SDS011;5100;45.176;5.714;2023-06-14T13:58:42;2.50;;;2.30;;
10120;SDS011;5100;45.176;5.714;2023-06-14T14:01:10;4.12;;;2.90;;
10120;SDS011;5100;45.176;5.714;2023-06-14T14:03:37;3.80;;;2.95;;
10120;SDS011;5100;45.176;5.714;2023-06-14T14:06:03;3.37;;;3.00;;
10120;SDS011;5100;45.176;5.714;2023-06-14T14:08:31;4.68;;;3.10;;
10120;SDS011;5100;45.176;5.714;2023-06-14T14:10:57;2.95;;;2.70;;
10120;SDS011;5100;45.176;5.714;2023-06-14T14:13:23;3.60;;;3.30;;
10120;SDS011;5100;45.176;5.714;2023-06-14T14:15:50;4.20;;;3.30;;
10120;SDS011;5100;45.176;5.714;2023-06-14T14:18:16;3.10;;;2.83;;
10120;SDS011;5100;45.176;5.714;2023-06-14T14:20:42;3.40;;;3.10;;
10120;SDS011;5100;45.176;5.714;2023-06-14T14:23:08;3.20;;;3.00;;
10120;SDS011;5100;45.176;5.714;2023-06-14T14:25:35;3.45;;;3.10;;
10120;SDS011;5100;45.176;5.714;2023-06-14T14:28:01;3.25;;;2.90;;
10120;SDS011;5100;45.176;5.714;2023-06-14T14:30:27;3.00;;;2.80;;
10120;SDS011;5100;45.176;5.714;2023-06-14T14:32:54;3.78;;;2.95;;
10120;SDS011;5100;45.176;5.714;2023-06-14T14:35:20;3.35;;;2.80;;
10120;SDS011;5100;45.176;5.714;2023-06-14T14:37:51;3.45;;;3.15;;
10120;SDS011;5100;45.176;5.714;2023-06-14T14:40:17;2.80;;;2.60;;
10120;SDS011;5100;45.176;5.714;2023-06-14T14:42:43;2.97;;;2.78;;
10120;SDS011;5100;45.176;5.714;2023-06-14T14:45:09;2.72;;;2.53;;
10120;SDS011;5100;45.176;5.714;2023-06-14T14:47:36;5.65;;;3.08;;
10120;SDS011;5100;45.176;5.714;2023-06-14T14:50:02;3.40;;;2.83;;
10120;SDS011;5100;45.176;5.714;2023-06-14T14:52:28;3.05;;;2.85;;
10120;SDS011;5100;45.176;5.714;2023-06-14T14:54:54;3.50;;;3.20;;
10120;SDS011;5100;45.176;5.714;2023-06-14T14:57:21;3.15;;;2.60;;
10120;SDS011;5100;45.176;5.714;2023-06-14T14:59:47;3.58;;;2.50;;
10120;SDS011;5100;45.176;5.714;2023-06-14T15:02:13;2.78;;;2.33;;
10120;SDS011;5100;45.176;5.714;2023-06-14T15:04:39;3.05;;;2.85;;
10120;SDS011;5100;45.176;5.714;2023-06-14T15:07:05;3.80;;;2.95;;
10120;SDS011;5100;45.176;5.714;2023-06-14T15:09:31;5.32;;;2.62;;
10120;SDS011;5100;45.176;5.714;2023-06-14T15:11:57;3.00;;;2.50;;
10120;SDS011;5100;45.176;5.714;2023-06-14T15:14:23;3.40;;;2.58;;
10120;SDS011;5100;45.176;5.714;2023-06-14T15:16:49;3.97;;;2.42;;
10120;SDS011;5100;45.176;5.714;2023-06-14T15:19:17;4.03;;;3.20;;
10120;SDS011;5100;45.176;5.714;2023-06-14T15:21:43;4.05;;;2.65;;
10120;SDS011;5100;45.176;5.714;2023-06-14T15:24:09;3.10;;;2.78;;
10120;SDS011;5100;45.176;5.714;2023-06-14T15:26:35;2.80;;;2.60;;
10120;SDS011;5100;45.176;5.714;2023-06-14T15:29:01;3.50;;;3.20;;
10120;SDS011;5100;45.176;5.714;2023-06-14T15:31:28;3.10;;;2.80;;